Time;durP1;ratioP1;P1;durP2;ratioP2;P2;SDS_P1;SDS_P2;PMS_P1;PMS_P2;Temp;Humidity;BMP_temperature;BMP_pressure;BME280_temperature;BME280_humidity;BME280_pressure;Samples;Min_cycle;Max_cycle;Signal;HPM_P1;HPM_P2
2022/05/09 00:01:14;;;;;;;15.02;3.67;;;;;;;12.66;58.47;102648.66;5054881;28;20068;-51
2022/05/09 00:03:44;;;;;;;10.85;3.47;;;;;;;12.64;58.56;102639.84;5035047;28;20047;-50
2022/05/09 00:06:12;;;;;;;12.13;3.85;;;;;;;12.59;58.55;102643.28;5054067;28;20419;-50
2022/05/09 00:08:44;;;;;;;14.07;3.80;;;;;;;12.46;58.32;102640.75;5067549;28;20095;-52
2022/05/09 00:11:12;;;;;;;12.63;3.80;;;;;;;12.44;58.96;102643.75;5053353;28;20073;-50
2022/05/09 00:13:43;;;;;;;14.93;4.35;;;;;;;12.46;58.89;102635.28;5049252;28;20445;-52
2022/05/09 00:16:10;;;;;;;14.25;4.35;;;;;;;12.49;59.00;102627.47;5058446;28;20407;-50
2022/05/09 00:18:38;;;;;;;11.88;4.18;;;;;;;12.46;59.04;102627.09;5055001;28;20082;-53
2022/05/09 00:21:06;;;;;;;14.63;4.13;;;;;;;12.46;59.77;102624.34;5072481;28;20049;-50
2022/05/09 00:23:34;;;;;;;15.45;4.40;;;;;;;12.46;59.06;102618.91;5071595;28;20048;-53
2022/05/09 00:26:01;;;;;;;11.40;4.00;;;;;;;12.41;59.02;102624.25;5054075;28;20062;-51
2022/05/09 00:28:29;;;;;;;11.13;3.38;;;;;;;12.31;60.31;102627.56;5053078;28;20415;-49
2022/05/09 00:30:58;;;;;;;13.57;3.95;;;;;;;12.27;60.65;102632.69;5054051;28;20045;-48
2022/05/09 00:33:26;;;;;;;10.15;3.40;;;;;;;12.29;60.94;102627.81;5031067;28;20041;-48
2022/05/09 00:35:54;;;;;;;11.88;3.47;;;;;;;12.25;60.43;102634.81;5044541;28;20041;-49
2022/05/09 00:38:22;;;;;;;11.82;3.72;;;;;;;12.19;60.71;102618.50;5072537;28;20154;-50
2022/05/09 00:41:37;;;;;;;14.75;3.83;;;;;;;12.25;60.45;102623.88;5053073;28;20051;-49
2022/05/09 00:43:39;;;;;;;11.98;3.75;;;;;;;12.25;60.42;102623.88;5042149;28;20049;-50
2022/05/09 00:46:08;;;;;;;11.88;3.83;;;;;;;12.20;61.00;102625.66;5049698;28;20047;-48
2022/05/09 00:48:36;;;;;;;11.80;3.70;;;;;;;12.07;61.62;102621.22;5055442;28;20054;-49
2022/05/09 00:51:05;;;;;;;12.10;3.78;;;;;;;12.02;61.81;102618.34;5052224;28;20033;-47
2022/05/09 00:53:35;;;;;;;12.18;3.88;;;;;;;11.98;62.23;102617.16;5046749;28;20041;-50
2022/05/09 00:56:06;;;;;;;10.93;3.78;;;;;;;12.06;61.12;102625.03;5036231;28;20411;-49
2022/05/09 00:58:43;;;;;;;11.63;3.97;;;;;;;12.10;61.31;102615.31;5056017;28;20036;-49
2022/05/09 01:01:12;;;;;;;13.82;3.90;;;;;;;12.02;61.34;102616.44;5055385;28;20036;-50
2022/05/09 01:04:06;;;;;;;12.45;3.80;;;;;;;11.97;62.48;102613.59;5046356;28;20454;-50
2022/05/09 01:06:36;;;;;;;12.50;4.00;;;;;;;12.01;62.08;102609.31;5037750;28;20049;-50
2022/05/09 01:09:05;;;;;;;21.77;4.63;;;;;;;12.01;62.17;102611.22;5054498;28;20041;-52
2022/05/09 01:11:37;;;;;;;10.95;3.53;;;;;;;11.97;62.08;102605.38;5034669;28;20040;-50
2022/05/09 01:14:08;;;;;;;13.55;4.15;;;;;;;11.87;62.24;102608.69;5052811;28;20057;-49
2022/05/09 01:16:36;;;;;;;14.20;4.15;;;;;;;11.82;63.19;102602.22;5055300;28;20047;-50
2022/05/09 01:19:18;;;;;;;12.35;3.80;;;;;;;11.78;63.20;102601.84;5066706;28;20041;-49
2022/05/09 01:21:46;;;;;;;13.20;4.00;;;;;;;11.75;63.47;102599.59;5056333;28;20029;-49
2022/05/09 01:24:18;;;;;;;13.77;4.00;;;;;;;11.74;62.94;102595.22;5065060;28;20040;-48
2022/05/09 01:26:46;;;;;;;16.83;4.22;;;;;;;11.71;63.31;102595.66;5069484;28;20037;-50
2022/05/09 01:29:30;;;;;;;10.10;3.83;;;;;;;11.69;63.90;102592.34;5057559;28;20037;-48
2022/05/09 01:31:58;;;;;;;17.08;4.38;;;;;;;11.68;63.90;102596.94;5038511;28;20038;-49
2022/05/09 01:34:27;;;;;;;13.15;4.10;;;;;;;11.66;64.13;102592.78;5057400;28;20044;-52
2022/05/09 01:37:01;;;;;;;11.90;3.97;;;;;;;11.65;64.12;102585.69;5038761;28;20041;-49
2022/05/09 01:39:30;;;;;;;15.70;4.07;;;;;;;11.66;63.36;102592.78;5070799;28;20040;-48
2022/05/09 01:42:04;;;;;;;9.13;3.72;;;;;;;11.66;63.92;102593.63;5057344;28;20041;-50
2022/05/09 01:44:31;;;;;;;15.93;3.90;;;;;;;11.69;64.24;102584.97;5046620;28;20043;-51
2022/05/09 01:49:46;;;;;;;14.95;3.60;;;;;;;11.62;64.32;102586.16;5059392;28;20044;-53
2022/05/09 01:52:14;;;;;;;10.60;3.53;;;;;;;11.61;63.73;102588.03;5066607;28;20041;-50
2022/05/09 01:54:43;;;;;;;12.85;4.05;;;;;;;11.55;64.01;102585.41;5034372;28;20041;-47
2022/05/09 01:57:12;;;;;;;14.80;4.70;;;;;;;11.49;64.00;102593.44;5035988;28;20045;-47
2022/05/09 01:59:40;;;;;;;14.35;3.95;;;;;;;11.55;64.77;102585.41;5042340;28;20051;-48
2022/05/09 02:02:12;;;;;;;12.00;3.83;;;;;;;11.65;64.21;102591.13;5012578;28;20043;-52
2022/05/09 02:04:40;;;;;;;14.30;4.18;;;;;;;11.69;64.52;102598.63;5036128;28;20037;-49
2022/05/09 02:07:10;;;;;;;10.93;3.80;;;;;;;11.69;64.35;102592.34;5018425;28;20045;-51
2022/05/09 02:09:43;;;;;;;9.77;3.67;;;;;;;11.66;63.90;102582.69;5034738;28;20518;-52
2022/05/09 02:12:11;;;;;;;14.40;4.55;;;;;;;11.59;63.85;102581.94;5056257;28;20037;-49
2022/05/09 02:14:39;;;;;;;12.80;3.55;;;;;;;11.54;63.90;102591.91;5055540;28;20053;-51
2022/05/09 02:17:08;;;;;;;14.70;4.25;;;;;;;11.43;64.68;102588.09;5037967;28;20056;-50
2022/05/09 02:19:36;;;;;;;13.05;4.43;;;;;;;11.33;64.60;102594.09;5057059;28;20059;-50
2022/05/09 02:22:04;;;;;;;13.38;4.32;;;;;;;11.30;64.92;102589.91;5060088;28;20045;-50
2022/05/09 02:24:33;;;;;;;12.07;4.13;;;;;;;11.29;65.01;102593.69;5037480;28;20045;-50
2022/05/09 02:27:01;;;;;;;12.52;4.07;;;;;;;11.27;65.66;102590.34;5055160;28;20041;-51
2022/05/09 02:29:31;;;;;;;14.30;4.50;;;;;;;11.26;65.24;102588.72;5038722;28;20388;-52
2022/05/09 02:32:01;;;;;;;12.30;4.07;;;;;;;11.14;65.88;102585.09;5054752;28;20556;-50
2022/05/09 02:34:28;;;;;;;14.68;4.40;;;;;;;10.98;66.51;102583.78;5055383;28;20416;-50
2022/05/09 02:36:56;;;;;;;12.60;3.85;;;;;;;10.95;66.34;102589.72;5037729;28;20041;-49
2022/05/09 02:39:24;;;;;;;11.85;3.92;;;;;;;11.02;66.65;102586.91;5075045;28;20052;-50
2022/05/09 02:41:51;;;;;;;11.90;4.05;;;;;;;11.01;66.62;102582.50;5068290;28;20042;-53
2022/05/09 02:44:19;;;;;;;15.93;4.22;;;;;;;11.03;66.20;102581.22;5053349;28;20552;-53
2022/05/09 02:46:47;;;;;;;18.70;4.70;;;;;;;11.00;66.79;102578.94;5047363;28;20045;-50
2022/05/09 02:49:14;;;;;;;13.90;4.35;;;;;;;11.05;66.15;102573.63;5056044;28;20041;-50
2022/05/09 02:51:43;;;;;;;11.55;4.10;;;;;;;11.04;66.77;102569.25;5066633;28;20044;-50
2022/05/09 02:54:11;;;;;;;15.48;4.10;;;;;;;10.97;66.16;102571.22;5074532;28;20043;-50
2022/05/09 02:56:39;;;;;;;13.10;4.15;;;;;;;10.90;66.81;102575.91;5069878;28;20403;-49
2022/05/09 02:59:06;;;;;;;11.50;3.80;;;;;;;10.87;66.56;102579.94;5063539;28;20041;-50
2022/05/09 03:01:34;;;;;;;14.60;4.07;;;;;;;10.85;66.79;102589.41;5061769;28;20048;-49
2022/05/09 03:06:48;;;;;;;14.80;4.18;;;;;;;10.78;67.55;102569.56;5053175;28;20048;-47
2022/05/09 03:09:16;;;;;;;11.38;4.15;;;;;;;10.80;67.63;102568.28;5055598;28;20525;-47
2022/05/09 03:11:45;;;;;;;11.93;4.10;;;;;;;10.83;66.87;102578.72;5067666;28;20514;-49
2022/05/09 03:14:12;;;;;;;16.77;4.65;;;;;;;10.81;67.42;102564.47;5074678;28;20066;-49
2022/05/09 03:16:40;;;;;;;14.07;4.05;;;;;;;10.83;67.24;102569.72;5072520;28;20414;-50
2022/05/09 03:19:08;;;;;;;11.05;3.70;;;;;;;10.78;66.98;102575.84;5051947;28;20124;-51
2022/05/09 03:21:35;;;;;;;14.88;3.90;;;;;;;10.76;67.23;102575.22;5055417;28;20112;-49
2022/05/09 03:24:03;;;;;;;16.50;4.70;;;;;;;10.76;67.13;102567.03;5054625;28;20043;-51
2022/05/09 03:26:31;;;;;;;15.32;4.28;;;;;;;10.61;67.25;102559.25;5052060;28;20045;-50
2022/05/09 03:28:58;;;;;;;14.25;4.32;;;;;;;10.43;68.28;102562.75;5053971;28;20510;-51
2022/05/09 03:31:26;;;;;;;13.25;4.45;;;;;;;10.43;68.54;102567.38;5067108;28;20045;-48
2022/05/09 03:33:56;;;;;;;13.55;4.28;;;;;;;10.47;68.26;102562.31;5074436;28;20037;-52
2022/05/09 03:36:24;;;;;;;13.40;4.15;;;;;;;10.43;68.60;102553.75;5074005;28;20044;-50
2022/05/09 03:38:53;;;;;;;13.48;4.10;;;;;;;10.41;68.77;102556.72;5055059;28;20036;-51
2022/05/09 03:41:21;;;;;;;11.85;4.20;;;;;;;10.43;68.76;102556.47;5055353;28;20044;-51
2022/05/09 03:43:48;;;;;;;10.82;3.80;;;;;;;10.53;68.80;102562.22;5054240;28;20041;-52
2022/05/09 03:46:16;;;;;;;12.20;4.47;;;;;;;10.55;67.96;102559.28;5053985;28;20049;-53
2022/05/09 03:48:44;;;;;;;14.48;4.75;;;;;;;10.57;68.00;102559.91;5054705;28;20037;-48
2022/05/09 03:51:12;;;;;;;12.15;3.92;;;;;;;10.56;68.63;102553.63;5066881;28;20058;-50
2022/05/09 03:53:39;;;;;;;14.82;4.75;;;;;;;10.54;67.84;102553.03;5073754;28;20411;-53
2022/05/09 03:56:07;;;;;;;15.13;4.78;;;;;;;10.50;68.17;102561.88;5073706;28;20052;-50
2022/05/09 03:58:38;;;;;;;16.02;4.28;;;;;;;10.47;68.59;102556.88;5066047;28;20052;-50
2022/05/09 04:01:08;;;;;;;12.85;4.00;;;;;;;10.45;68.67;102555.19;5036765;28;20116;-50
2022/05/09 04:03:36;;;;;;;12.85;4.10;;;;;;;10.43;68.42;102556.47;5052248;28;20049;-50
2022/05/09 04:06:04;;;;;;;13.38;4.70;;;;;;;10.43;68.77;102553.75;5052659;28;20045;-52
2022/05/09 04:08:32;;;;;;;14.23;4.93;;;;;;;10.50;68.65;102551.78;5052230;28;20052;-52
2022/05/09 04:10:59;;;;;;;12.82;4.65;;;;;;;10.48;68.35;102553.91;5066963;28;20043;-52
2022/05/09 04:13:27;;;;;;;13.43;4.25;;;;;;;10.47;68.73;102546.81;5072234;28;20057;-49
2022/05/09 04:18:59;;;;;;;14.82;4.63;;;;;;;10.46;68.72;102561.47;4988693;28;20047;-49
2022/05/09 04:21:27;;;;;;;13.75;4.65;;;;;;;10.43;68.58;102559.19;5012902;28;20088;-49
2022/05/09 04:23:58;;;;;;;18.77;5.20;;;;;;;10.44;68.76;102555.44;5032799;28;20408;-50
2022/05/09 04:26:26;;;;;;;15.90;4.50;;;;;;;10.47;68.48;102557.69;5032544;28;20053;-50
2022/05/09 04:28:54;;;;;;;14.57;4.97;;;;;;;10.50;68.88;102556.41;5015043;28;20060;-51
2022/05/09 04:31:22;;;;;;;15.27;4.30;;;;;;;10.47;68.65;102552.25;5035424;28;20518;-51
2022/05/09 04:33:52;;;;;;;15.32;5.00;;;;;;;10.41;68.82;102544.97;5052457;28;20442;-50
2022/05/09 04:36:21;;;;;;;15.52;4.43;;;;;;;10.36;68.95;102545.63;5053016;28;20557;-50
2022/05/09 04:38:51;;;;;;;14.50;4.47;;;;;;;10.34;69.34;102542.31;5054387;28;20055;-50
2022/05/09 04:41:19;;;;;;;13.10;4.57;;;;;;;10.34;69.48;102549.63;5056274;28;20041;-50
2022/05/09 04:43:48;;;;;;;15.35;4.53;;;;;;;10.36;69.49;102547.53;5053289;28;20045;-49
2022/05/09 04:46:16;;;;;;;14.18;4.90;;;;;;;10.33;69.20;102540.63;5053487;28;20049;-50
2022/05/09 04:48:44;;;;;;;18.63;4.57;;;;;;;10.28;69.78;102542.34;5032516;28;20048;-51
2022/05/09 04:51:12;;;;;;;16.75;5.18;;;;;;;10.26;69.91;102539.00;5054404;28;20403;-50
2022/05/09 04:53:40;;;;;;;15.70;4.53;;;;;;;10.24;70.02;102542.78;5053355;28;20048;-50
2022/05/09 04:56:07;;;;;;;13.63;4.60;;;;;;;10.17;70.46;102550.19;5035129;28;20514;-50
2022/05/09 04:58:35;;;;;;;13.65;4.70;;;;;;;10.13;70.56;102546.25;5053183;28;20048;-50
2022/05/09 05:01:03;;;;;;;12.20;4.57;;;;;;;10.10;71.06;102537.66;5041216;28;20044;-49
2022/05/09 05:03:30;;;;;;;13.70;4.45;;;;;;;10.10;70.81;102538.53;5073139;28;20040;-49
2022/05/09 05:05:58;;;;;;;14.48;4.55;;;;;;;10.21;71.03;102542.41;5070427;28;20048;-51
2022/05/09 05:08:30;;;;;;;12.60;4.32;;;;;;;10.29;70.36;102530.41;5064806;28;20037;-50
2022/05/09 05:10:58;;;;;;;14.15;4.88;;;;;;;10.37;70.07;102532.88;5053908;28;20467;-50
2022/05/09 05:13:26;;;;;;;14.48;4.53;;;;;;;10.48;70.13;102534.00;5034737;28;20049;-50
2022/05/09 05:15:57;;;;;;;13.25;5.13;;;;;;;10.50;69.45;102527.25;5045172;28;20048;-50
2022/05/09 05:18:27;;;;;;;12.98;5.00;;;;;;;10.52;69.34;102530.59;5069151;28;20037;-48
2022/05/09 05:20:55;;;;;;;16.58;5.32;;;;;;;10.57;69.66;102521.75;5059700;28;20036;-50
2022/05/09 05:23:23;;;;;;;10.93;4.30;;;;;;;10.63;69.00;102524.41;5072510;28;20043;-48
2022/05/09 05:25:51;;;;;;;14.45;5.22;;;;;;;10.69;68.23;102527.28;5070012;28;20079;-49
2022/05/09 05:28:19;;;;;;;14.15;5.53;;;;;;;10.73;68.01;102528.50;5072543;28;20486;-49
2022/05/09 05:30:49;;;;;;;14.98;4.93;;;;;;;10.77;68.15;102529.69;5036798;28;20041;-47
2022/05/09 05:33:17;;;;;;;15.98;5.20;;;;;;;10.83;67.59;102531.53;5072781;28;20044;-50
2022/05/09 05:35:44;;;;;;;16.60;4.85;;;;;;;10.87;67.52;102532.72;5049484;28;20410;-51
2022/05/09 05:38:13;;;;;;;21.85;5.72;;;;;;;10.88;67.34;102539.84;5052638;28;20187;-50
2022/05/09 05:40:43;;;;;;;16.88;5.53;;;;;;;10.92;67.72;102532.91;4352965;28;10000561;-49
2022/05/09 05:43:14;;;;;;;13.80;4.93;;;;;;;10.92;66.94;102535.63;5049155;28;20048;-53
2022/05/09 05:45:46;;;;;;;15.10;4.53;;;;;;;10.88;67.67;102539.84;5039257;28;20488;-51
2022/05/09 05:48:14;;;;;;;20.15;5.00;;;;;;;10.94;67.97;102544.38;5012255;28;20045;-51
2022/05/09 05:50:42;;;;;;;15.27;5.05;;;;;;;10.99;66.98;102539.09;5035179;28;20045;-50
2022/05/09 05:53:09;;;;;;;16.20;4.65;;;;;;;11.02;66.78;102537.81;5050042;28;20053;-48
2022/05/09 05:55:37;;;;;;;11.95;4.20;;;;;;;11.08;66.67;102537.69;5048806;28;20044;-48
2022/05/09 05:58:05;;;;;;;14.93;4.88;;;;;;;11.13;66.80;102541.66;5049023;28;20049;-47
2022/05/09 06:00:33;;;;;;;17.08;5.15;;;;;;;11.12;66.77;102535.38;5056969;28;20048;-50
2022/05/09 06:03:00;;;;;;;16.50;5.25;;;;;;;11.08;66.99;102537.69;5061931;28;20094;-48
2022/05/09 06:05:30;;;;;;;13.88;5.13;;;;;;;11.08;66.90;102543.16;5052604;28;20041;-52
2022/05/09 06:07:57;;;;;;;73.50;41.70;;;;;;;11.09;67.69;102544.84;5014951;28;20041;-48
2022/05/09 06:10:26;;;;;;;29.35;13.30;;;;;;;11.11;67.40;102535.59;5038315;28;20033;-52
2022/05/09 06:12:54;;;;;;;15.05;6.63;;;;;;;11.17;67.50;102542.88;5041250;28;20420;-53
2022/05/09 06:15:25;;;;;;;17.55;5.55;;;;;;;11.19;67.60;102540.75;5014613;28;20053;-49
2022/05/09 06:17:53;;;;;;;16.73;6.00;;;;;;;11.23;67.54;102534.59;5032410;28;20511;-51
2022/05/09 06:20:22;;;;;;;29.30;13.40;;;;;;;11.26;67.31;102530.56;5014845;28;20128;-54
2022/05/09 06:22:50;;;;;;;21.85;11.05;;;;;;;11.31;67.47;102536.16;5071114;28;20037;-53
2022/05/09 06:25:19;;;;;;;18.17;7.07;;;;;;;11.34;67.52;102535.69;5072205;28;20530;-54
2022/05/09 06:27:47;;;;;;;15.38;6.72;;;;;;;11.41;67.36;102536.44;5071978;28;20040;-54
2022/05/09 06:30:17;;;;;;;20.52;6.38;;;;;;;11.50;67.26;102539.69;5054286;28;20048;-51
2022/05/09 06:32:45;;;;;;;19.98;6.47;;;;;;;11.57;67.76;102531.38;5054145;28;20048;-52
2022/05/09 06:35:23;;;;;;;20.38;5.97;;;;;;;11.63;66.95;102533.19;5035494;28;20034;-53
2022/05/09 06:37:58;;;;;;;14.48;5.53;;;;;;;11.68;66.47;102530.59;5033681;28;20455;-53
2022/05/09 06:40:29;;;;;;;16.25;5.93;;;;;;;11.74;66.60;102532.41;5049425;28;20041;-50
2022/05/09 06:42:57;;;;;;;17.30;5.70;;;;;;;11.77;66.42;102529.19;5064332;28;20040;-51
2022/05/09 06:45:29;;;;;;;16.10;5.88;;;;;;;11.79;65.62;102526.25;5002393;28;20041;-52
2022/05/09 06:47:57;;;;;;;18.70;5.95;;;;;;;11.80;65.45;102534.19;5017518;28;20377;-52
2022/05/09 06:50:30;;;;;;;16.98;5.22;;;;;;;11.83;65.44;102530.16;5046014;28;20045;-51
2022/05/09 06:53:01;;;;;;;22.60;5.80;;;;;;;11.85;65.26;102526.13;5027360;28;20044;-52
2022/05/09 06:55:43;;;;;;;17.83;6.10;;;;;;;11.87;64.42;102529.47;5019761;28;20292;-54
2022/05/09 06:58:16;;;;;;;15.27;5.95;;;;;;;11.90;64.37;102533.63;5017400;28;20050;-52
2022/05/09 07:00:44;;;;;;;12.18;5.18;;;;;;;11.95;64.78;102525.56;5038414;28;20462;-51
2022/05/09 07:03:13;;;;;;;14.88;5.22;;;;;;;11.99;64.37;102520.47;5046244;28;20482;-53
2022/05/09 07:05:44;;;;;;;14.55;5.75;;;;;;;12.02;64.20;102520.81;5057220;28;20056;-51
2022/05/09 07:08:12;;;;;;;21.73;6.85;;;;;;;12.04;64.82;102528.78;5057373;28;20410;-53
2022/05/09 07:10:40;;;;;;;22.27;6.88;;;;;;;12.06;64.50;102529.41;5052755;28;20049;-51
2022/05/09 07:13:08;;;;;;;15.48;7.00;;;;;;;12.08;64.33;102522.63;5036970;28;20060;-52
2022/05/09 07:15:36;;;;;;;17.10;6.40;;;;;;;12.14;64.36;102526.31;5033868;28;20049;-51
2022/05/09 07:18:05;;;;;;;17.17;6.00;;;;;;;12.16;64.86;102529.63;5034710;28;20041;-49
2022/05/09 07:20:34;;;;;;;17.35;5.90;;;;;;;12.20;64.77;102521.81;5047378;28;20032;-49
2022/05/09 07:23:10;;;;;;;18.42;6.45;;;;;;;12.21;64.96;102524.28;5061012;28;20036;-51
2022/05/09 07:25:38;;;;;;;18.67;7.40;;;;;;;12.25;64.48;102525.50;5039170;28;20112;-53
2022/05/09 07:28:07;;;;;;;16.30;6.00;;;;;;;12.30;65.36;102522.03;5036598;28;20141;-50
2022/05/09 07:30:34;;;;;;;18.50;6.32;;;;;;;12.35;64.50;102522.16;5055284;28;20044;-54
2022/05/09 07:33:03;;;;;;;15.93;6.07;;;;;;;12.41;64.58;102523.09;5057451;28;20062;-51
2022/05/09 07:35:32;;;;;;;16.45;6.28;;;;;;;12.48;64.84;102524.66;5036648;28;20056;-49
2022/05/09 07:38:00;;;;;;;15.63;5.85;;;;;;;12.52;63.66;102530.47;5053983;28;20499;-50
2022/05/09 07:40:34;;;;;;;15.50;5.93;;;;;;;12.55;64.52;102524.50;5036201;28;20041;-50
2022/05/09 07:43:03;;;;;;;13.70;5.82;;;;;;;12.55;63.67;102522.63;5033990;28;20042;-51
2022/05/09 07:45:31;;;;;;;16.90;6.22;;;;;;;12.57;63.96;102523.19;5054085;28;20059;-48
2022/05/09 07:47:58;;;;;;;16.42;6.50;;;;;;;12.62;64.54;102514.28;5053533;28;20116;-52
2022/05/09 07:50:26;;;;;;;19.30;6.40;;;;;;;12.70;64.90;102516.66;5053927;28;20041;-50
2022/05/09 07:52:54;;;;;;;15.20;5.53;;;;;;;12.79;64.91;102519.84;5037927;28;20042;-52
2022/05/09 07:55:21;;;;;;;25.58;7.85;;;;;;;12.89;66.08;102519.22;5054688;28;20037;-53
2022/05/09 07:57:49;;;;;;;18.63;6.13;;;;;;;12.99;64.74;102519.44;5054448;28;20044;-50
2022/05/09 08:00:22;;;;;;;15.68;6.00;;;;;;;13.10;66.38;102517.72;5050655;28;20036;-50
2022/05/09 08:02:49;;;;;;;15.65;6.05;;;;;;;13.16;65.57;102520.34;5036481;28;20084;-51
2022/05/09 08:05:17;;;;;;;16.20;5.80;;;;;;;13.21;65.12;102523.16;5061634;28;20037;-49
2022/05/09 08:07:45;;;;;;;14.50;5.72;;;;;;;13.23;63.82;102520.19;5057356;28;20040;-49
2022/05/09 08:10:15;;;;;;;16.27;6.15;;;;;;;13.22;63.78;102524.81;5053249;28;20049;-50
2022/05/09 08:12:43;;;;;;;16.60;6.20;;;;;;;13.22;64.25;102524.81;5036947;28;20049;-51
2022/05/09 08:15:13;;;;;;;16.27;6.20;;;;;;;13.25;63.98;102511.72;5035340;28;20523;-53
2022/05/09 08:17:43;;;;;;;14.05;5.78;;;;;;;13.26;63.27;102524.34;5053733;28;20048;-52
2022/05/09 08:20:12;;;;;;;12.52;5.38;;;;;;;13.27;63.70;102515.06;5038678;28;20075;-54
2022/05/09 08:22:41;;;;;;;15.85;6.20;;;;;;;13.27;63.72;102512.31;5056134;28;20036;-52
2022/05/09 08:25:11;;;;;;;12.95;5.32;;;;;;;13.29;63.84;102513.75;5073156;28;20072;-52
2022/05/09 08:27:39;;;;;;;15.10;5.72;;;;;;;13.36;63.92;102513.63;5071699;28;20045;-51
2022/05/09 08:30:08;;;;;;;19.50;5.78;;;;;;;13.39;64.11;102513.13;5035915;28;20048;-52
2022/05/09 08:32:42;;;;;;;14.50;6.50;;;;;;;13.50;63.50;102520.47;5055451;28;20454;-51
2022/05/09 08:35:11;;;;;;;19.13;9.07;;;;;;;13.57;63.48;102518.41;5053010;28;20047;-51
2022/05/09 08:37:38;;;;;;;17.38;6.47;;;;;;;13.64;63.34;102521.81;5052968;28;20041;-51
2022/05/09 08:40:06;;;;;;;15.38;5.97;;;;;;;13.79;63.06;102520.41;5055700;28;20403;-48
2022/05/09 08:43:29;;;;;;;21.23;7.47;;;;;;;13.85;62.66;102519.41;5072298;28;20499;-52
2022/05/09 08:46:16;;;;;;;16.35;5.88;;;;;;;13.89;62.37;102522.50;4992253;28;20059;-51
2022/05/09 08:48:59;;;;;;;19.60;6.05;;;;;;;13.91;62.47;102518.44;5055218;28;20098;-52
2022/05/09 08:51:33;;;;;;;12.57;5.25;;;;;;;13.94;62.84;102514.34;5053772;28;20051;-48
2022/05/09 08:54:05;;;;;;;11.63;5.10;;;;;;;13.97;62.86;102511.94;5073410;28;20044;-49
2022/05/09 08:56:34;;;;;;;16.33;5.65;;;;;;;14.12;62.60;102507.78;5055424;28;20043;-50
2022/05/09 08:59:05;;;;;;;15.85;6.40;;;;;;;14.35;61.10;102515.81;5071522;28;20402;-54
2022/05/09 09:01:52;;;;;;;13.88;6.25;;;;;;;14.46;60.99;102505.84;5037309;28;20033;-51
2022/05/09 09:04:23;;;;;;;12.90;5.70;;;;;;;14.47;60.37;102497.34;5072364;28;20040;-50
2022/05/09 09:07:16;;;;;;;16.23;5.90;;;;;;;14.42;60.29;102502.75;5055334;28;20469;-51
2022/05/09 09:10:03;;;;;;;13.43;5.28;;;;;;;14.40;58.76;102501.34;5072248;28;20045;-55
2022/05/09 09:12:47;;;;;;;19.75;6.78;;;;;;;14.47;57.84;102507.47;5048493;28;20488;-52
2022/05/09 09:15:48;;;;;;;17.08;6.15;;;;;;;14.55;58.32;102492.53;5052751;28;20053;-52
2022/05/09 09:18:28;;;;;;;19.27;9.52;;;;;;;14.58;57.09;102487.38;5035017;28;20087;-50
2022/05/09 09:21:02;;;;;;;15.88;8.00;;;;;;;14.62;56.24;102482.19;5067061;28;20032;-51
2022/05/09 09:23:48;;;;;;;17.88;8.68;;;;;;;14.65;57.08;102473.47;5070576;28;20044;-50
2022/05/09 09:26:30;;;;;;;20.75;11.02;;;;;;;14.68;56.61;102486.69;5072496;28;20051;-52
2022/05/09 09:29:25;;;;;;;19.98;7.93;;;;;;;14.73;55.70;102483.16;5072590;28;20041;-52
2022/05/09 09:32:09;;;;;;;17.73;8.38;;;;;;;14.77;56.38;102479.66;5053288;28;20051;-54
2022/05/09 09:34:40;;;;;;;18.83;7.40;;;;;;;14.89;55.41;102488.59;5058115;28;20476;-52
2022/05/09 09:37:19;;;;;;;16.35;6.40;;;;;;;15.01;54.46;102487.59;5044608;28;20053;-51
2022/05/09 09:39:47;;;;;;;20.23;7.20;;;;;;;15.21;54.55;102487.84;5022665;28;20038;-53
2022/05/09 09:42:14;;;;;;;18.88;7.63;;;;;;;15.32;53.26;102486.88;5063084;28;20048;-55
2022/05/09 09:44:47;;;;;;;23.20;7.32;;;;;;;15.34;53.62;102479.22;5068535;28;20051;-52
2022/05/09 09:47:23;;;;;;;30.52;17.65;;;;;;;15.50;54.11;102479.34;5026847;28;20042;-53
2022/05/09 09:50:20;;;;;;;20.15;7.25;;;;;;;15.60;52.37;102479.44;5046038;28;20060;-51
2022/05/09 09:52:52;;;;;;;18.05;7.35;;;;;;;15.52;52.80;102477.16;5035391;28;20049;-51
2022/05/09 09:55:39;;;;;;;18.83;6.93;;;;;;;15.40;54.12;102476.50;5049523;28;20038;-53
2022/05/09 09:58:27;;;;;;;16.85;6.18;;;;;;;15.35;56.03;102471.78;5032148;28;20121;-51
2022/05/09 10:01:14;;;;;;;15.52;6.57;;;;;;;15.47;54.96;102460.63;5037276;28;20040;-53
2022/05/09 10:03:45;;;;;;;17.73;6.25;;;;;;;15.70;53.24;102462.22;5036324;28;20060;-52
2022/05/09 10:06:17;;;;;;;14.65;6.35;;;;;;;15.74;53.85;102458.69;5047442;28;20042;-53
2022/05/09 10:08:55;;;;;;;15.90;8.10;;;;;;;15.88;52.81;102452.75;5037650;28;20046;-54
2022/05/09 10:11:28;;;;;;;17.15;7.63;;;;;;;15.92;52.92;102451.97;5046241;28;20036;-53
2022/05/09 10:14:01;;;;;;;18.10;8.85;;;;;;;15.95;52.34;102445.13;5053325;28;20045;-52
2022/05/09 10:16:30;;;;;;;14.18;6.13;;;;;;;16.06;51.88;102451.50;5042085;28;20045;-54
2022/05/09 10:19:03;;;;;;;15.48;5.50;;;;;;;16.07;51.97;102443.00;5043792;28;20075;-54
2022/05/09 10:24:52;;;;;;;15.27;6.65;;;;;;;16.04;51.86;102437.19;5038216;28;20041;-53
2022/05/09 10:27:28;;;;;;;12.15;5.28;;;;;;;16.08;52.23;102432.81;5007524;28;20132;-51
2022/05/09 10:30:02;;;;;;;19.77;6.47;;;;;;;16.10;53.51;102430.63;5043154;28;20044;-55
2022/05/09 10:32:55;;;;;;;12.65;5.97;;;;;;;16.06;51.76;102430.31;5036935;28;20056;-55
2022/05/09 10:35:34;;;;;;;14.48;6.03;;;;;;;16.08;52.94;102430.88;4349084;28;10000333;-52
2022/05/09 10:38:16;;;;;;;12.50;5.82;;;;;;;16.04;51.86;102427.00;5018795;28;20049;-52
2022/05/09 10:40:58;;;;;;;12.80;5.57;;;;;;;16.03;52.61;102425.34;5033648;28;20096;-52
2022/05/09 10:43:36;;;;;;;14.38;5.65;;;;;;;16.07;50.99;102426.50;5032676;28;20073;-52
2022/05/09 10:46:12;;;;;;;11.95;5.80;;;;;;;16.14;50.23;102427.09;5024300;28;20528;-53
2022/05/09 10:48:57;;;;;;;15.32;5.43;;;;;;;16.23;51.06;102421.06;5025105;28;20049;-52
2022/05/09 10:51:56;;;;;;;14.13;5.63;;;;;;;16.32;52.27;102417.53;5035260;28;20136;-53
2022/05/09 10:54:38;;;;;;;14.35;5.30;;;;;;;16.42;51.96;102416.75;5027546;28;20046;-52
2022/05/09 10:57:15;;;;;;;13.57;5.70;;;;;;;16.50;51.29;102413.50;5031756;28;20045;-54
2022/05/09 11:00:24;;;;;;;15.75;5.30;;;;;;;16.59;49.94;102416.56;5039876;28;20060;-55
2022/05/09 11:03:10;;;;;;;15.02;6.07;;;;;;;16.67;49.06;102412.44;5018417;28;20053;-53
2022/05/09 11:05:44;;;;;;;;;;;;;;;16.75;49.03;102409.19;5052531;28;20064;-56
2022/05/09 11:08:35;;;;;;;12.23;5.65;;;;;;;16.78;53.32;102411.38;5035726;28;19921;-56
2022/05/09 11:11:25;;;;;;;14.70;6.25;;;;;;;16.83;52.37;102405.91;5023689;28;20053;-53
2022/05/09 11:14:15;;;;;;;17.45;6.47;;;;;;;16.88;49.96;102402.34;5032019;28;20042;-53
2022/05/09 11:17:20;;;;;;;12.93;5.32;;;;;;;16.85;51.34;102391.91;5012814;28;20072;-54
2022/05/09 11:20:03;;;;;;;16.60;5.60;;;;;;;16.88;49.79;102386.66;5031254;28;20048;-51
2022/05/09 11:22:35;;;;;;;13.13;5.90;;;;;;;16.95;53.88;102383.66;5045982;28;20071;-53
2022/05/09 11:25:29;;;;;;;11.98;5.80;;;;;;;17.06;50.46;102382.56;5019400;28;20128;-52
2022/05/09 11:28:22;;;;;;;15.93;5.70;;;;;;;17.19;48.65;102383.94;5042888;28;20045;-51
2022/05/09 11:31:12;;;;;;;13.13;4.88;;;;;;;17.21;49.41;102379.00;5043996;28;20483;-53
2022/05/09 11:34:02;;;;;;;13.63;5.55;;;;;;;17.24;47.98;102378.44;5038676;28;20075;-53
2022/05/09 11:36:48;;;;;;;12.80;5.53;;;;;;;17.32;48.71;102374.31;5021134;28;20048;-51
2022/05/09 11:39:28;;;;;;;13.55;5.15;;;;;;;17.32;50.45;102366.88;5037726;28;20045;-57
2022/05/09 11:43:27;;;;;;;12.10;5.40;;;;;;;17.36;47.72;102365.22;5022499;28;20052;-54
2022/05/09 11:45:30;;;;;;;12.10;5.70;;;;;;;17.36;59.87;102359.69;5038871;28;20044;-55
2022/05/09 11:48:28;;;;;;;12.85;5.72;;;;;;;17.33;57.10;102354.75;5034218;28;20462;-52
2022/05/09 11:51:13;;;;;;;14.43;6.25;;;;;;;17.34;51.33;102361.94;5039457;28;20553;-51
2022/05/09 11:53:43;;;;;;;12.80;5.40;;;;;;;17.42;49.11;102355.03;5036832;28;20464;-53